sensor_id;sensor_type;location;lat;lon;timestamp;pressure;altitude;pressure_sealevel;temperature;humidity
12073;BME280;6098;49.004;8.372;2023-07-29T00:11:35;99843.08;;;19.78;100.00
12073;BME280;6098;49.004;8.372;2023-07-29T00:26:26;99822.39;;;19.78;100.00
12073;BME280;6098;49.004;8.372;2023-07-29T00:41:26;99809.66;;;19.80;100.00
12073;BME280;6098;49.004;8.372;2023-07-29T00:56:17;99811.77;;;19.77;100.00
12073;BME280;6098;49.004;8.372;2023-07-29T01:11:17;99780.92;;;19.76;100.00
12073;BME280;6098;49.004;8.372;2023-07-29T01:26:06;99775.95;;;19.66;100.00
12073;BME280;6098;49.004;8.372;2023-07-29T01:40:59;99768.02;;;19.54;100.00
12073;BME280;6098;49.004;8.372;2023-07-29T01:55:51;99765.55;;;19.46;100.00
12073;BME280;6098;49.004;8.372;2023-07-29T02:10:59;99783.29;;;19.43;100.00
12073;BME280;6098;49.004;8.372;2023-07-29T02:25:47;99782.72;;;19.45;100.00
12073;BME280;6098;49.004;8.372;2023-07-29T02:40:40;99770.01;;;19.47;100.00
12073;BME280;6098;49.004;8.372;2023-07-29T02:55:39;99758.17;;;19.54;100.00
12073;BME280;6098;49.004;8.372;2023-07-29T03:10:27;99729.59;;;19.53;100.00
12073;BME280;6098;49.004;8.372;2023-07-29T03:25:19;99721.17;;;19.42;100.00
12073;BME280;6098;49.004;8.372;2023-07-29T03:40:12;99707.88;;;19.40;100.00
12073;BME280;6098;49.004;8.372;2023-07-29T03:55:12;99736.30;;;19.43;100.00
12073;BME280;6098;49.004;8.372;2023-07-29T04:10:07;99754.12;;;19.28;100.00
12073;BME280;6098;49.004;8.372;2023-07-29T04:25:00;99755.25;;;19.25;100.00
12073;BME280;6098;49.004;8.372;2023-07-29T04:39:52;99721.85;;;19.23;100.00
12073;BME280;6098;49.004;8.372;2023-07-29T04:54:46;99732.06;;;19.19;100.00
12073;BME280;6098;49.004;8.372;2023-07-29T05:09:38;99736.39;;;19.21;100.00
12073;BME280;6098;49.004;8.372;2023-07-29T05:24:30;99746.70;;;19.20;100.00
12073;BME280;6098;49.004;8.372;2023-07-29T05:39:25;99736.66;;;19.33;100.00
12073;BME280;6098;49.004;8.372;2023-07-29T05:54:18;99752.02;;;19.53;100.00
12073;BME280;6098;49.004;8.372;2023-07-29T06:09:13;99756.47;;;19.63;100.00
12073;BME280;6098;49.004;8.372;2023-07-29T06:24:07;99786.61;;;19.62;100.00
12073;BME280;6098;49.004;8.372;2023-07-29T06:39:01;99792.06;;;19.72;100.00
12073;BME280;6098;49.004;8.372;2023-07-29T06:53:56;99800.52;;;19.77;100.00
12073;BME280;6098;49.004;8.372;2023-07-29T07:08:50;99790.70;;;19.82;100.00
12073;BME280;6098;49.004;8.372;2023-07-29T07:23:46;99799.73;;;19.97;100.00
12073;BME280;6098;49.004;8.372;2023-07-29T07:38:39;99790.78;;;20.17;100.00
12073;BME280;6098;49.004;8.372;2023-07-29T07:53:32;99805.08;;;20.53;100.00
12073;BME280;6098;49.004;8.372;2023-07-29T08:08:25;99812.66;;;20.73;100.00
12073;BME280;6098;49.004;8.372;2023-07-29T08:23:19;99826.06;;;20.84;100.00
12073;BME280;6098;49.004;8.372;2023-07-29T08:38:11;99831.41;;;20.89;100.00
12073;BME280;6098;49.004;8.372;2023-07-29T08:53:05;99853.42;;;20.94;100.00
12073;BME280;6098;49.004;8.372;2023-07-29T09:07:57;99847.91;;;21.01;100.00
12073;BME280;6098;49.004;8.372;2023-07-29T09:22:50;99838.41;;;21.31;100.00
12073;BME280;6098;49.004;8.372;2023-07-29T09:37:45;99847.94;;;21.54;100.00
12073;BME280;6098;49.004;8.372;2023-07-29T09:52:38;99826.16;;;21.66;100.00
12073;BME280;6098;49.004;8.372;2023-07-29T10:07:30;99848.02;;;22.01;98.81
12073;BME280;6098;49.004;8.372;2023-07-29T10:22:24;99869.17;;;22.10;95.66
12073;BME280;6098;49.004;8.372;2023-07-29T10:37:17;99850.85;;;22.37;90.69
12073;BME280;6098;49.004;8.372;2023-07-29T10:52:14;99834.67;;;22.87;82.66
12073;BME280;6098;49.004;8.372;2023-07-29T11:22:03;99855.05;;;23.62;73.62
12073;BME280;6098;49.004;8.372;2023-07-29T11:36:56;99829.27;;;23.93;69.95
12073;BME280;6098;49.004;8.372;2023-07-29T11:51:49;99808.46;;;23.94;67.14
12073;BME280;6098;49.004;8.372;2023-07-29T12:06:43;99795.04;;;24.78;65.82
12073;BME280;6098;49.004;8.372;2023-07-29T12:21:36;99787.35;;;25.07;60.93
12073;BME280;6098;49.004;8.372;2023-07-29T12:51:44;99792.80;;;25.72;58.56
12073;BME280;6098;49.004;8.372;2023-07-29T13:06:35;99784.41;;;25.83;58.83
12073;BME280;6098;49.004;8.372;2023-07-29T13:21:29;99774.34;;;26.31;56.17
12073;BME280;6098;49.004;8.372;2023-07-29T13:36:24;99758.34;;;26.87;55.43
12073;BME280;6098;49.004;8.372;2023-07-29T13:51:16;99774.42;;;27.01;52.47
12073;BME280;6098;49.004;8.372;2023-07-29T14:06:11;99774.92;;;27.16;51.45
12073;BME280;6098;49.004;8.372;2023-07-29T14:21:05;99778.38;;;27.81;52.45
12073;BME280;6098;49.004;8.372;2023-07-29T14:36:03;99776.20;;;28.40;48.96
12073;BME280;6098;49.004;8.372;2023-07-29T14:50:54;99761.52;;;28.48;49.88
12073;BME280;6098;49.004;8.372;2023-07-29T15:05:49;99776.03;;;28.56;47.27
12073;BME280;6098;49.004;8.372;2023-07-29T15:20:44;99774.52;;;29.08;45.83
12073;BME280;6098;49.004;8.372;2023-07-29T15:35:37;99750.83;;;29.12;47.14
12073;BME280;6098;49.004;8.372;2023-07-29T15:50:33;99744.33;;;28.70;48.52
12073;BME280;6098;49.004;8.372;2023-07-29T16:05:23;99724.30;;;28.26;50.07
12073;BME280;6098;49.004;8.372;2023-07-29T16:36:35;99718.50;;;27.48;52.92
12073;BME280;6098;49.004;8.372;2023-07-29T16:51:28;99737.69;;;27.27;53.62
12073;BME280;6098;49.004;8.372;2023-07-29T17:06:22;99734.20;;;27.11;55.15
12073;BME280;6098;49.004;8.372;2023-07-29T17:21:13;99741.70;;;26.86;54.04
12073;BME280;6098;49.004;8.372;2023-07-29T17:36:05;99745.14;;;26.68;54.61
12073;BME280;6098;49.004;8.372;2023-07-29T17:50:57;99758.66;;;26.22;57.38
12073;BME280;6098;49.004;8.372;2023-07-29T18:05:48;99776.70;;;25.55;61.84
12073;BME280;6098;49.004;8.372;2023-07-29T18:20:41;99786.77;;;25.13;65.42
12073;BME280;6098;49.004;8.372;2023-07-29T18:35:34;99797.66;;;24.75;66.90
12073;BME280;6098;49.004;8.372;2023-07-29T18:50:26;99794.17;;;24.40;67.40
12073;BME280;6098;49.004;8.372;2023-07-29T19:05:19;99786.83;;;24.16;68.44
12073;BME280;6098;49.004;8.372;2023-07-29T19:20:12;99787.47;;;23.92;69.38
12073;BME280;6098;49.004;8.372;2023-07-29T19:35:07;99797.38;;;23.71;70.23
12073;BME280;6098;49.004;8.372;2023-07-29T19:49:58;99823.47;;;23.58;72.67
12073;BME280;6098;49.004;8.372;2023-07-29T20:04:51;99821.91;;;23.47;75.06
12073;BME280;6098;49.004;8.372;2023-07-29T20:19:43;99818.50;;;23.41;76.59
12073;BME280;6098;49.004;8.372;2023-07-29T20:34:36;99826.84;;;23.38;77.18
12073;BME280;6098;49.004;8.372;2023-07-29T20:49:29;99811.45;;;23.30;80.08
12073;BME280;6098;49.004;8.372;2023-07-29T21:04:23;99832.34;;;23.19;80.75
12073;BME280;6098;49.004;8.372;2023-07-29T21:19:16;99841.55;;;23.13;81.78
12073;BME280;6098;49.004;8.372;2023-07-29T21:34:08;99866.98;;;22.84;87.04
12073;BME280;6098;49.004;8.372;2023-07-29T21:49:05;99885.30;;;22.48;92.50
12073;BME280;6098;49.004;8.372;2023-07-29T22:03:58;99921.07;;;22.22;98.69
12073;BME280;6098;49.004;8.372;2023-07-29T22:18:51;99894.96;;;22.09;100.00
12073;BME280;6098;49.004;8.372;2023-07-29T22:33:43;99898.88;;;21.86;100.00
12073;BME280;6098;49.004;8.372;2023-07-29T22:48:39;99917.86;;;21.70;100.00
12073;BME280;6098;49.004;8.372;2023-07-29T23:03:32;99923.06;;;21.38;100.00
12073;BME280;6098;49.004;8.372;2023-07-29T23:18:23;99914.92;;;20.89;95.66
12073;BME280;6098;49.004;8.372;2023-07-29T23:33:15;99908.13;;;20.55;96.29
12073;BME280;6098;49.004;8.372;2023-07-29T23:48:06;99889.27;;;20.34;96.84
